Terminal Aerodrome Forecast
Issued by NWS

Home | Current Version | Previous Version | Text Only | Print | Product List | Glossary On
Versions: 1 2 3 4 5 6 7 8 9 10 11 12 13 14 15
000
FTUS44 KEPZ 312300 RRA
TAFTCS
TAF
KTCS 312341Z 0100/0124 17010KT P6SM VCTS SCT080CB BKN200
     FM010400 24007KT P6SM VCSH SCT040 BKN060
     FM011500 VRB04KT P6SM FEW030 BKN080 OVC220
     FM012000 16006KT P6SM SCT030 BKN080 BKN220=

USA.gov is the U.S. government's official web portal to all federal, state and local government web resources and services.